createdAt,value
2019-02-18T00:01:24.769Z,8.55
2019-02-18T00:03:57.967Z,8.44
2019-02-18T00:06:30.538Z,8.48
2019-02-18T00:09:04.357Z,8.34
2019-02-18T00:11:39.999Z,8.33
2019-02-18T00:14:13.143Z,8.31
2019-02-18T00:16:46.919Z,8.32
2019-02-18T00:19:20.578Z,8.18
2019-02-18T00:21:53.701Z,8.14
2019-02-18T00:24:26.675Z,8.40
2019-02-18T00:26:59.811Z,8.62
2019-02-18T00:29:33.190Z,8.55
2019-02-18T00:32:06.670Z,8.46
2019-02-18T00:34:40.451Z,8.42
2019-02-18T00:37:13.510Z,8.41
2019-02-18T00:39:46.950Z,8.40
2019-02-18T00:42:19.644Z,8.43
2019-02-18T00:44:53.509Z,8.42
2019-02-18T00:47:26.432Z,8.32
2019-02-18T00:49:59.057Z,8.32
2019-02-18T00:52:32.001Z,8.43
2019-02-18T00:55:05.591Z,8.41
2019-02-18T00:57:38.662Z,8.30
2019-02-18T01:00:12.152Z,8.24
2019-02-18T01:02:45.259Z,8.38
2019-02-18T01:05:19.249Z,8.30
2019-02-18T01:07:52.400Z,8.29
2019-02-18T01:10:25.464Z,8.20
2019-02-18T01:12:58.889Z,8.09
2019-02-18T01:15:32.774Z,8.08
2019-02-18T01:18:05.501Z,8.00
2019-02-18T01:20:38.870Z,8.03
2019-02-18T01:23:12.661Z,7.98
2019-02-18T01:25:45.731Z,7.97
2019-02-18T01:28:19.437Z,7.92
2019-02-18T01:30:52.954Z,7.74
2019-02-18T01:33:26.750Z,7.71
2019-02-18T01:35:59.788Z,7.62
2019-02-18T01:38:32.715Z,7.64
2019-02-18T01:41:06.561Z,7.61
2019-02-18T01:43:40.317Z,7.64
2019-02-18T01:46:13.772Z,7.59
2019-02-18T01:48:46.651Z,7.48
2019-02-18T01:51:20.423Z,7.45
2019-02-18T01:53:53.827Z,7.44
2019-02-18T01:56:27.818Z,7.38
2019-02-18T01:59:01.228Z,7.32
2019-02-18T02:01:35.146Z,7.32
2019-02-18T02:04:08.861Z,7.35
2019-02-18T02:06:41.822Z,7.46
2019-02-18T02:09:15.430Z,7.52
2019-02-18T02:11:48.695Z,7.48
2019-02-18T02:14:22.045Z,7.42
2019-02-18T02:16:55.855Z,7.35
2019-02-18T02:19:29.339Z,7.25
2019-02-18T02:22:02.915Z,7.29
2019-02-18T02:24:35.932Z,7.31
2019-02-18T02:27:09.228Z,7.31
2019-02-18T02:29:42.570Z,7.21
2019-02-18T02:32:14.895Z,7.33
2019-02-18T02:34:47.663Z,7.33
2019-02-18T02:37:20.952Z,7.35
2019-02-18T02:39:54.025Z,7.26
2019-02-18T02:42:27.324Z,7.22
2019-02-18T02:45:01.094Z,7.19
2019-02-18T02:47:34.958Z,7.13
2019-02-18T02:50:07.867Z,7.20
2019-02-18T02:52:41.589Z,7.24
2019-02-18T02:55:15.162Z,7.20
2019-02-18T02:57:48.138Z,7.08
2019-02-18T03:00:21.421Z,7.12
2019-02-18T03:02:54.520Z,7.09
2019-02-18T03:05:28.220Z,7.13
2019-02-18T03:08:01.353Z,7.10
2019-02-18T03:10:34.391Z,7.35
2019-02-18T03:13:07.390Z,7.37
2019-02-18T03:15:40.270Z,7.41
2019-02-18T03:18:13.667Z,7.16
2019-02-18T03:20:46.993Z,7.23
2019-02-18T03:23:20.635Z,7.19
2019-02-18T03:25:54.190Z,7.46
2019-02-18T03:29:30.353Z,7.41
2019-02-18T03:32:04.176Z,7.57
2019-02-18T03:34:42.345Z,7.70
2019-02-18T03:37:15.268Z,7.68
2019-02-18T03:39:48.112Z,7.64
2019-02-18T03:42:21.124Z,7.62
2019-02-18T03:44:54.501Z,7.52
2019-02-18T03:47:27.841Z,7.32
2019-02-18T03:50:00.957Z,7.26
2019-02-18T03:52:35.070Z,7.05
2019-02-18T03:55:08.520Z,7.01
2019-02-18T03:57:41.496Z,7.01
2019-02-18T04:00:14.210Z,6.85
2019-02-18T04:02:48.564Z,6.51
2019-02-18T04:05:22.330Z,6.26
2019-02-18T04:07:54.510Z,6.36
2019-02-18T04:10:27.060Z,6.16
2019-02-18T04:13:00.586Z,6.03
2019-02-18T04:15:34.046Z,6.09
2019-02-18T04:18:07.653Z,5.90
2019-02-18T04:20:41.026Z,5.69
2019-02-18T04:23:15.001Z,5.40
2019-02-18T04:25:49.381Z,5.24
2019-02-18T04:28:23.824Z,5.08
2019-02-18T04:30:57.301Z,4.99
2019-02-18T04:33:31.105Z,4.90
2019-02-18T04:36:04.419Z,4.93
2019-02-18T04:38:37.589Z,4.93
2019-02-18T04:41:10.901Z,5.01
2019-02-18T04:43:45.601Z,5.12
2019-02-18T04:46:18.216Z,4.94
2019-02-18T04:48:51.589Z,4.94
2019-02-18T04:51:24.330Z,4.74
2019-02-18T04:53:58.105Z,4.54
2019-02-18T04:56:31.798Z,4.56
2019-02-18T04:59:04.520Z,4.50
2019-02-18T05:01:37.135Z,4.61
2019-02-18T05:04:10.023Z,4.65
2019-02-18T05:06:43.036Z,4.84
2019-02-18T05:09:16.759Z,4.89
2019-02-18T05:11:49.469Z,4.86
2019-02-18T05:14:22.882Z,4.83
2019-02-18T05:16:56.580Z,4.85
2019-02-18T05:19:30.193Z,4.77
2019-02-18T05:22:03.358Z,4.80
2019-02-18T05:24:37.158Z,4.71
2019-02-18T05:27:10.499Z,4.72
2019-02-18T05:29:43.213Z,4.69
2019-02-18T05:32:16.403Z,4.78
2019-02-18T05:34:49.350Z,4.94
2019-02-18T05:37:22.754Z,5.03
2019-02-18T05:39:56.088Z,4.95
2019-02-18T05:42:30.255Z,4.98
2019-02-18T05:45:05.849Z,5.14
2019-02-18T05:47:38.829Z,5.36
2019-02-18T05:50:12.411Z,5.49
2019-02-18T05:52:47.140Z,5.38
2019-02-18T05:55:20.560Z,5.16
2019-02-18T05:57:53.167Z,5.08
2019-02-18T06:00:26.913Z,4.96
2019-02-18T06:03:00.723Z,4.75
2019-02-18T06:05:34.629Z,4.56
2019-02-18T06:08:07.778Z,4.72
2019-02-18T06:10:43.591Z,4.77
2019-02-18T06:13:16.191Z,4.72
2019-02-18T06:15:49.132Z,4.68
2019-02-18T06:18:22.413Z,4.77
2019-02-18T06:20:55.419Z,4.88
2019-02-18T06:23:28.919Z,5.01
2019-02-18T06:26:01.934Z,4.94
2019-02-18T06:28:35.419Z,4.98
2019-02-18T06:31:09.205Z,4.75
2019-02-18T06:33:42.825Z,4.45
2019-02-18T06:36:15.810Z,4.25
2019-02-18T06:38:49.306Z,4.13
2019-02-18T06:41:23.785Z,4.09
2019-02-18T06:43:57.120Z,3.96
2019-02-18T06:46:33.178Z,3.93
2019-02-18T06:49:09.813Z,3.92
2019-02-18T06:51:42.745Z,3.84
2019-02-18T06:54:15.817Z,3.84
2019-02-18T06:57:17.687Z,3.91
2019-02-18T07:00:02.076Z,3.96
2019-02-18T07:02:52.380Z,4.16
2019-02-18T07:06:03.028Z,4.30
2019-02-18T07:08:56.223Z,4.58
2019-02-18T07:11:39.898Z,4.72
2019-02-18T07:14:13.713Z,4.74
2019-02-18T07:16:47.773Z,4.58
2019-02-18T07:19:21.488Z,4.67
2019-02-18T07:21:54.535Z,4.81
2019-02-18T07:24:27.917Z,4.61
2019-02-18T07:27:01.510Z,4.38
2019-02-18T07:29:36.039Z,4.36
2019-02-18T07:32:09.468Z,4.31
2019-02-18T07:34:42.956Z,4.30
2019-02-18T07:37:16.435Z,4.23
2019-02-18T07:39:49.984Z,4.25
2019-02-18T07:42:22.577Z,4.21
2019-02-18T07:44:55.638Z,4.25
2019-02-18T07:47:29.121Z,4.30
2019-02-18T07:50:01.773Z,4.43
2019-02-18T07:52:35.606Z,4.47
2019-02-18T07:55:08.695Z,4.47
2019-02-18T07:57:41.375Z,4.54
2019-02-18T08:00:15.092Z,4.53
2019-02-18T08:02:48.849Z,4.61
2019-02-18T08:05:21.386Z,4.62
2019-02-18T08:07:54.817Z,4.61
2019-02-18T08:10:27.846Z,4.62
2019-02-18T08:13:01.268Z,4.65
2019-02-18T08:15:34.782Z,4.64
2019-02-18T08:18:08.105Z,4.68
2019-02-18T08:20:41.128Z,4.68
2019-02-18T08:23:15.063Z,4.76
2019-02-18T08:25:49.055Z,4.86
2019-02-18T08:28:22.165Z,4.90
2019-02-18T08:30:55.943Z,4.99
2019-02-18T08:33:29.335Z,5.03
2019-02-18T08:36:02.834Z,5.09
2019-02-18T08:38:36.839Z,5.32
2019-02-18T08:41:09.835Z,5.51
2019-02-18T08:43:43.505Z,5.54
2019-02-18T08:46:16.625Z,5.92
2019-02-18T08:48:50.141Z,5.92
2019-02-18T08:51:23.396Z,5.90
2019-02-18T08:53:57.042Z,6.03
2019-02-18T08:56:30.353Z,6.07
2019-02-18T08:59:03.510Z,6.34
2019-02-18T09:01:37.114Z,6.96
2019-02-18T09:04:10.330Z,7.42
2019-02-18T09:06:43.840Z,7.08
2019-02-18T09:09:16.628Z,6.96
2019-02-18T09:11:50.618Z,7.25
2019-02-18T09:14:23.930Z,7.41
2019-02-18T09:16:58.700Z,7.66
2019-02-18T09:19:31.645Z,7.85
2019-02-18T09:22:23.122Z,7.87
2019-02-18T09:25:02.270Z,8.06
2019-02-18T09:27:35.453Z,8.28
2019-02-18T09:30:08.329Z,8.35
2019-02-18T09:32:41.421Z,8.87
2019-02-18T09:35:14.911Z,9.47
2019-02-18T09:37:48.202Z,9.70
2019-02-18T09:40:21.507Z,10.70
2019-02-18T09:42:55.132Z,11.30
2019-02-18T09:45:28.321Z,11.64
2019-02-18T09:48:00.903Z,11.77
2019-02-18T09:50:34.286Z,12.55
2019-02-18T09:53:07.681Z,12.14
2019-02-18T09:55:41.050Z,11.90
2019-02-18T09:58:14.871Z,11.92
2019-02-18T10:00:47.641Z,11.98
2019-02-18T10:03:31.039Z,12.54
2019-02-18T10:05:56.095Z,12.38
2019-02-18T10:08:29.200Z,12.23
2019-02-18T10:11:02.668Z,12.71
2019-02-18T10:13:36.559Z,12.78
2019-02-18T10:16:09.991Z,13.02
2019-02-18T10:18:43.911Z,13.94
2019-02-18T10:21:16.938Z,14.74
2019-02-18T10:23:50.337Z,14.13
2019-02-18T10:26:23.360Z,13.83
2019-02-18T10:28:57.091Z,13.44
2019-02-18T10:31:30.573Z,13.97
2019-02-18T10:34:03.853Z,14.88
2019-02-18T10:36:37.648Z,14.38
2019-02-18T10:39:11.901Z,15.01
2019-02-18T10:41:45.312Z,15.12
2019-02-18T10:44:18.281Z,15.99
2019-02-18T10:46:52.077Z,15.45
2019-02-18T10:49:25.622Z,17.68
2019-02-18T10:51:59.382Z,16.90
2019-02-18T10:54:32.982Z,17.01
2019-02-18T10:57:05.889Z,16.99
2019-02-18T10:59:39.294Z,16.98
2019-02-18T11:02:12.710Z,17.42
2019-02-18T11:04:46.323Z,17.87
2019-02-18T11:07:19.270Z,18.45
2019-02-18T11:09:52.481Z,18.28
2019-02-18T11:12:25.002Z,19.88
2019-02-18T11:14:58.458Z,20.27
2019-02-18T11:17:38.693Z,20.09
2019-02-18T11:20:07.305Z,19.59
2019-02-18T11:22:40.676Z,19.59
2019-02-18T11:25:13.396Z,21.53
2019-02-18T11:27:46.800Z,21.04
2019-02-18T11:30:19.946Z,20.40
2019-02-18T11:32:53.755Z,22.62
2019-02-18T11:35:26.952Z,23.18
2019-02-18T11:38:00.324Z,20.92
2019-02-18T11:40:33.490Z,20.92
2019-02-18T11:43:06.868Z,19.94
2019-02-18T11:45:40.427Z,21.96
2019-02-18T11:48:13.834Z,21.69
2019-02-18T11:50:47.014Z,21.69
2019-02-18T11:53:20.084Z,22.41
2019-02-18T11:55:53.803Z,20.14
2019-02-18T11:58:27.038Z,20.82
2019-02-18T12:01:00.088Z,19.62
2019-02-18T12:03:33.374Z,19.62
2019-02-18T12:06:06.589Z,19.15
2019-02-18T12:08:39.661Z,19.15
2019-02-18T12:11:13.481Z,21.23
2019-02-18T12:13:46.969Z,21.23
2019-02-18T12:16:20.549Z,20.03
2019-02-18T12:18:53.968Z,21.19
2019-02-18T12:21:27.097Z,21.19
2019-02-18T12:24:00.311Z,22.18
2019-02-18T12:26:33.746Z,21.50
2019-02-18T12:29:07.480Z,20.08
2019-02-18T12:31:40.921Z,20.08
2019-02-18T12:34:14.521Z,19.90
2019-02-18T12:36:47.570Z,19.90
2019-02-18T12:39:22.629Z,19.82
2019-02-18T12:41:55.367Z,19.65
2019-02-18T12:44:29.754Z,19.04
2019-02-18T12:47:05.429Z,21.17
2019-02-18T12:49:39.230Z,21.17
2019-02-18T12:52:12.432Z,21.41
2019-02-18T12:54:45.256Z,21.41
2019-02-18T12:57:18.403Z,21.96
2019-02-18T12:59:51.734Z,22.71
2019-02-18T13:02:25.292Z,22.22
2019-02-18T13:04:58.387Z,21.78
2019-02-18T13:07:31.378Z,21.92
2019-02-18T13:10:06.156Z,20.88
2019-02-18T13:12:38.565Z,20.60
2019-02-18T13:15:12.229Z,21.45
2019-02-18T13:17:45.329Z,20.55
2019-02-18T13:20:19.096Z,20.22
2019-02-18T13:22:53.624Z,20.22
2019-02-18T13:25:27.483Z,19.91
2019-02-18T13:28:08.299Z,19.30
2019-02-18T13:30:36.188Z,19.85
2019-02-18T13:33:09.432Z,19.85
2019-02-18T13:35:43.579Z,19.49
2019-02-18T13:38:17.559Z,19.18
2019-02-18T13:40:50.156Z,19.09
2019-02-18T13:43:23.966Z,19.66
2019-02-18T13:45:58.509Z,19.14
2019-02-18T13:48:46.423Z,19.57
2019-02-18T13:51:24.325Z,18.96
2019-02-18T13:53:55.080Z,18.71
2019-02-18T13:56:28.615Z,18.71
2019-02-18T13:59:01.759Z,19.04
2019-02-18T14:01:34.347Z,18.57
2019-02-18T14:04:07.329Z,18.90
2019-02-18T14:06:40.100Z,19.14
2019-02-18T14:09:13.602Z,19.12
2019-02-18T14:11:46.392Z,18.84
2019-02-18T14:14:19.878Z,18.60
2019-02-18T14:16:53.292Z,18.27
2019-02-18T14:19:26.378Z,18.19
2019-02-18T14:21:59.764Z,18.25
2019-02-18T14:24:33.277Z,17.94
2019-02-18T14:27:06.657Z,18.51
2019-02-18T14:29:40.553Z,18.28
2019-02-18T14:32:14.025Z,17.77
2019-02-18T14:34:49.284Z,17.79
2019-02-18T14:37:22.724Z,18.26
2019-02-18T14:39:56.207Z,18.45
2019-02-18T14:42:30.412Z,17.74
2019-02-18T14:45:03.726Z,17.59
2019-02-18T14:47:37.244Z,17.50
2019-02-18T14:50:11.308Z,17.46
2019-02-18T14:52:45.135Z,17.26
2019-02-18T14:55:18.588Z,17.78
2019-02-18T14:57:52.335Z,17.78
2019-02-18T15:00:25.162Z,17.70
2019-02-18T15:02:57.395Z,17.58
2019-02-18T15:05:31.801Z,17.53
2019-02-18T15:08:05.303Z,17.44
2019-02-18T15:10:38.434Z,17.73
2019-02-18T15:13:12.303Z,17.46
2019-02-18T15:15:45.743Z,17.35
2019-02-18T15:18:19.316Z,17.32
2019-02-18T15:20:52.836Z,17.32
2019-02-18T15:23:26.278Z,17.38
2019-02-18T15:25:59.913Z,17.42
2019-02-18T15:28:33.232Z,17.21
2019-02-18T15:31:06.399Z,17.11
2019-02-18T15:33:40.003Z,16.82
2019-02-18T15:36:12.253Z,16.63
2019-02-18T15:38:46.583Z,16.67
2019-02-18T15:41:19.890Z,16.55
2019-02-18T15:43:53.297Z,16.51
2019-02-18T15:46:26.029Z,16.44
2019-02-18T15:49:00.678Z,16.43
2019-02-18T15:51:33.790Z,16.37
2019-02-18T15:54:06.991Z,16.33
2019-02-18T15:56:39.976Z,16.23
2019-02-18T15:59:13.172Z,16.19
2019-02-18T16:01:47.091Z,16.18
2019-02-18T16:04:21.062Z,16.08
2019-02-18T16:06:54.861Z,15.94
2019-02-18T16:09:28.207Z,15.90
2019-02-18T16:12:02.003Z,15.74
2019-02-18T16:14:35.888Z,15.62
2019-02-18T16:17:09.223Z,15.33
2019-02-18T16:19:42.352Z,15.13
2019-02-18T16:22:16.330Z,14.87
2019-02-18T16:24:49.807Z,14.31
2019-02-18T16:27:23.418Z,13.92
2019-02-18T16:29:56.594Z,13.72
2019-02-18T16:32:30.168Z,13.45
2019-02-18T16:35:03.725Z,13.33
2019-02-18T16:37:38.108Z,13.14
2019-02-18T16:40:13.197Z,12.97
2019-02-18T16:42:46.248Z,12.91
2019-02-18T16:45:18.911Z,12.77
2019-02-18T16:47:53.291Z,12.61
2019-02-18T16:50:26.895Z,12.48
2019-02-18T16:53:00.269Z,12.31
2019-02-18T16:55:33.705Z,12.35
2019-02-18T16:58:06.865Z,12.27
2019-02-18T17:00:39.922Z,12.22
2019-02-18T17:03:13.033Z,12.24
2019-02-18T17:05:46.195Z,12.28
2019-02-18T17:08:20.281Z,12.26
2019-02-18T17:10:53.387Z,12.18
2019-02-18T17:13:26.978Z,12.03
2019-02-18T17:16:00.588Z,11.95
2019-02-18T17:18:32.841Z,11.77
2019-02-18T17:21:06.847Z,11.67
2019-02-18T17:23:39.899Z,11.52
2019-02-18T17:26:12.949Z,11.51
2019-02-18T17:28:45.940Z,11.47
2019-02-18T17:31:21.829Z,11.34
2019-02-18T17:33:55.131Z,11.22
2019-02-18T17:36:28.970Z,11.33
2019-02-18T17:39:02.437Z,11.16
2019-02-18T17:41:37.822Z,11.20
2019-02-18T17:44:11.035Z,11.44
2019-02-18T17:46:44.437Z,11.65
2019-02-18T17:49:17.562Z,11.76
2019-02-18T17:51:50.729Z,11.78
2019-02-18T17:54:23.808Z,11.85
2019-02-18T17:56:57.368Z,11.90
2019-02-18T17:59:30.776Z,11.85
2019-02-18T18:02:06.248Z,11.82
2019-02-18T18:04:39.866Z,11.87
2019-02-18T18:07:12.987Z,11.71
2019-02-18T18:09:46.119Z,11.71
2019-02-18T18:12:19.558Z,11.69
2019-02-18T18:14:52.859Z,11.76
2019-02-18T18:17:26.113Z,11.72
2019-02-18T18:19:59.442Z,11.64
2019-02-18T18:22:33.208Z,11.55
2019-02-18T18:25:06.733Z,11.36
2019-02-18T18:27:40.646Z,11.25
2019-02-18T18:30:14.625Z,11.10
2019-02-18T18:32:47.737Z,10.73
2019-02-18T18:35:21.440Z,10.40
2019-02-18T18:37:55.219Z,10.80
2019-02-18T18:40:28.232Z,10.60
2019-02-18T18:43:01.724Z,10.12
2019-02-18T18:45:36.266Z,10.09
2019-02-18T18:48:10.244Z,10.09
2019-02-18T18:50:43.530Z,10.25
2019-02-18T18:53:17.175Z,10.15
2019-02-18T18:55:50.975Z,10.17
2019-02-18T18:58:24.903Z,10.37
2019-02-18T19:00:58.391Z,10.59
2019-02-18T19:03:32.752Z,10.60
2019-02-18T19:06:06.189Z,10.42
2019-02-18T19:08:39.423Z,10.32
